Aérodrome :
LOGIN :

S'inscrire | Disclaimer

   EN    FR    IT 

 










Légende :    VFR   VFR Marginal   IFR   IFR Intensif   IFR Très Intensif
Visi : 
Plafond : 
>= 8 km
>= 3000ft
5 à 8 km
1000 à 3000 ft
1500m à 5 km
500 à 1000 ft
800 à 1500m
200 à 500 ft
< 800m
< 200 ft
Symboles :   Orages  Brouillard  Fortes neiges  Fortes précipitations  Vent > 20 kt
SIGMETs :   Divers  Orages  Givrage  Turbulence  Onde Orograph.  Cendres Volcan.






- Altitude de l'aérodrome : 526 ft
- Code IATA : LTN


EGGW - London Luton

DERNIER METAR :
  • 021620Z AUTO 27013KT 9999 BKN035 OVC047 16/13 Q1017

METARs EXPIRÉS :
  • 021550Z AUTO 23013KT 200V280 9999 FEW029 BKN034 OVC044 18/11 Q1017
  • 021520Z AUTO 22012KT 180V250 9999 BKN039 18/10 Q1017
  • 021450Z AUTO 21013KT 9999 BKN039 19/10 Q1017
  • 020250Z AUTO 20008KT 160V230 9999 OVC008 11/10 Q1018
  • 021420Z AUTO 21013KT 9999 BKN039 19/10 Q1017

TAF TAF EGGW
Valide du 02 à 12h jusqu'au 03 à 12h UTC


021103Z 0212/0312 22015KT 9999 SCT035
TEMPO 0214/0220 7000 SHRA
PROB30
TEMPO 0215/0219 24015G25KT 3500 +SHRA
BECMG 0218/0221 28005KT
PROB30 0303/0306 6000
PROB30
TEMPO 0310/0312 9000 -SHRA
ATIS : +44 1582 395 204



MET'MAP, la Météo Aéronautique d'un coup d'oeil ! - Copyright ORBIFLY Décembre 2007 - Disclaimer

ORBIFLY MET'MAP TEAM :

Programmation & Développement : Alexandra Zaïnal
Sur une idée originale de : Baudouin d'Aumeries
Soutien technique & logistique : Manuel Goepfert
Assistance : Marc-Olivier Méhu




SOURCES & CREDITS :

   NOAA